Norfolk, Virginia
Traffic Map
Current Weather Conditions
Norfolk, Virginia
Overcast Haze
Overcast
44°
Feels Like: 37°
Wind Chill: 37° Ceiling: 700
Heat Index: 44° Visibility: 6mi
Dew Point: 40° Wind: 15mph
Humidity: 85% Direction: 210° (SSW)
Pressure: 30.03in Gusts: 0mph
Raw Report DataKORF 040351Z 21013KT 6SM BR OVC007 07/04 A3003 RMK AO2 SLP167 T00670044
Traffic Incident Summary
Active as of:
Severity:
Category:
InformationThere was an issue retrieving the traffic information for this location. Please try a different location or try again shortly.
Advertisements
Track Severe Weather on mobile